createdAt,value
2022-09-05T00:00:19.342Z,3.47
2022-09-05T00:03:24.775Z,2.92
2022-09-05T00:06:10.674Z,3.42
2022-09-05T00:09:12.673Z,3.15
2022-09-05T00:11:45.529Z,3.62
2022-09-05T00:14:36.766Z,3.72
2022-09-05T00:19:05.217Z,3.30
2022-09-05T00:24:25.692Z,3.40
2022-09-05T00:24:37.157Z,3.40
2022-09-05T00:26:53.972Z,3.17
2022-09-05T00:31:05.654Z,3.30
2022-09-05T00:32:55.539Z,3.10
2022-09-05T00:35:30.346Z,3.35
2022-09-05T00:37:59.248Z,3.33
2022-09-05T00:40:33.515Z,3.00
2022-09-05T00:43:08.193Z,3.20
2022-09-05T00:45:43.182Z,3.55
2022-09-05T00:48:21.517Z,3.33
2022-09-05T00:51:03.634Z,3.62
2022-09-05T00:53:39.633Z,3.70
2022-09-05T00:56:41.934Z,3.33
2022-09-05T00:59:31.518Z,3.40
2022-09-05T01:02:04.863Z,3.35
2022-09-05T01:04:38.590Z,2.90
2022-09-05T01:07:38.442Z,3.17
2022-09-05T01:13:34.872Z,3.28
2022-09-05T01:16:54.514Z,3.20
2022-09-05T01:19:46.290Z,3.40
2022-09-05T01:22:55.421Z,3.45
2022-09-05T01:25:29.346Z,3.55
2022-09-05T01:29:16.479Z,3.60
2022-09-05T01:31:20.891Z,3.35
2022-09-05T01:33:57.591Z,3.40
2022-09-05T01:36:52.146Z,3.03
2022-09-05T01:40:14.756Z,3.40
2022-09-05T01:42:43.104Z,3.28
2022-09-05T01:45:20.940Z,3.00
2022-09-05T01:48:13.459Z,2.97
2022-09-05T01:50:52.002Z,3.17
2022-09-05T01:53:36.387Z,3.35
2022-09-05T01:56:22.176Z,3.12
2022-09-05T01:59:08.499Z,3.25
2022-09-05T02:01:40.656Z,2.95
2022-09-05T02:04:08.265Z,3.33
2022-09-05T02:07:19.987Z,3.08
2022-09-05T02:10:07.070Z,3.28
2022-09-05T02:13:02.323Z,2.97
2022-09-05T02:15:59.218Z,3.30
2022-09-05T02:18:47.564Z,3.67
2022-09-05T02:21:55.535Z,3.10
2022-09-05T02:24:37.144Z,2.97
2022-09-05T02:27:35.874Z,3.75
2022-09-05T02:30:09.081Z,2.92
2022-09-05T02:33:03.588Z,3.20
2022-09-05T02:35:55.787Z,3.62
2022-09-05T02:40:31.230Z,3.10
2022-09-05T02:45:11.899Z,3.15
2022-09-05T02:45:25.460Z,3.33
2022-09-05T02:48:15.638Z,3.50
2022-09-05T02:56:55.147Z,3.65
2022-09-05T02:57:33.718Z,3.30
2022-09-05T02:57:40.245Z,3.40
2022-09-05T03:00:01.637Z,3.15
2022-09-05T03:02:50.457Z,2.90
2022-09-05T03:05:25.094Z,3.25
2022-09-05T03:08:05.676Z,3.47
2022-09-05T03:11:07.167Z,3.50
2022-09-05T03:13:34.698Z,3.62
2022-09-05T03:16:13.543Z,3.60
2022-09-05T03:19:12.221Z,3.33
2022-09-05T03:22:11.520Z,3.25
2022-09-05T03:25:16.887Z,3.08
2022-09-05T03:28:21.938Z,3.78
2022-09-05T03:30:56.818Z,3.58
2022-09-05T03:36:33.390Z,3.65
2022-09-05T03:39:31.053Z,3.78
2022-09-05T03:42:17.893Z,3.55
2022-09-05T03:45:11.460Z,3.75
2022-09-05T03:48:01.694Z,3.65
2022-09-05T03:57:12.924Z,3.08
2022-09-05T03:57:13.566Z,3.70
2022-09-05T03:57:38.427Z,3.60
2022-09-05T04:00:11.453Z,3.95
2022-09-05T04:06:10.325Z,3.35
2022-09-05T04:08:23.726Z,3.78
2022-09-05T04:08:54.231Z,3.95
2022-09-05T04:11:35.747Z,3.90
2022-09-05T04:14:08.656Z,3.60
2022-09-05T04:17:03.915Z,3.97
2022-09-05T04:19:49.903Z,3.97
2022-09-05T04:22:31.210Z,3.42
2022-09-05T04:25:07.168Z,4.15
2022-09-05T04:28:14.776Z,4.50
2022-09-05T04:30:57.627Z,3.85
2022-09-05T04:33:37.075Z,3.37
2022-09-05T04:36:24.330Z,3.85
2022-09-05T04:39:17.752Z,3.78
2022-09-05T04:41:49.289Z,3.83
2022-09-05T04:44:18.841Z,3.90
2022-09-05T04:46:53.618Z,3.10
2022-09-05T04:49:33.657Z,3.47
2022-09-05T04:52:31.634Z,3.47
2022-09-05T04:55:10.498Z,3.05
2022-09-05T04:57:58.477Z,3.25
2022-09-05T05:06:04.551Z,3.20
2022-09-05T05:06:09.762Z,3.50
2022-09-05T05:06:46.924Z,3.28
2022-09-05T05:09:26.406Z,3.10
2022-09-05T05:17:58.203Z,4.00
2022-09-05T05:18:02.497Z,3.67
2022-09-05T05:18:13.400Z,3.55
2022-09-05T05:20:54.297Z,4.12
2022-09-05T05:23:32.261Z,3.90
2022-09-05T05:26:02.837Z,3.28
2022-09-05T05:28:30.137Z,4.05
2022-09-05T05:31:09.420Z,3.35
2022-09-05T05:33:38.445Z,3.67
2022-09-05T05:36:08.562Z,3.58
2022-09-05T05:38:45.636Z,3.47
2022-09-05T05:41:32.618Z,3.35
2022-09-05T05:44:00.020Z,3.33
2022-09-05T05:46:34.208Z,3.33
2022-09-05T05:49:29.218Z,3.60
2022-09-05T05:55:09.749Z,3.25
2022-09-05T05:58:02.046Z,3.47
2022-09-05T06:00:51.408Z,3.33
2022-09-05T06:03:36.301Z,3.00
2022-09-05T06:06:08.374Z,3.27
2022-09-05T06:11:20.422Z,3.03
2022-09-05T06:15:01.461Z,3.22
2022-09-05T06:15:10.735Z,3.58
2022-09-05T06:17:38.721Z,3.00
2022-09-05T06:22:03.950Z,3.10
2022-09-05T06:23:38.846Z,2.65
2022-09-05T06:26:17.314Z,3.10
2022-09-05T06:28:59.724Z,3.12
2022-09-05T06:31:42.319Z,2.67
2022-09-05T06:34:14.380Z,3.12
2022-09-05T06:37:09.788Z,3.53
2022-09-05T06:40:12.025Z,3.47
2022-09-05T06:43:13.653Z,3.28
2022-09-05T06:46:52.858Z,3.65
2022-09-05T06:49:32.517Z,3.10
2022-09-05T06:52:28.175Z,3.22
2022-09-05T06:55:19.227Z,2.80
2022-09-05T06:58:05.862Z,2.33
2022-09-05T07:00:49.089Z,2.70
2022-09-05T07:03:43.652Z,2.67
2022-09-05T07:06:59.327Z,2.53
2022-09-05T07:09:52.115Z,2.72
2022-09-05T07:12:30.003Z,2.47
2022-09-05T07:15:20.855Z,2.95
2022-09-05T07:18:10.145Z,2.80
2022-09-05T07:21:15.599Z,3.20
2022-09-05T07:24:06.980Z,2.75
2022-09-05T07:26:54.306Z,2.47
2022-09-05T07:29:49.704Z,2.62
2022-09-05T07:32:30.093Z,3.15
2022-09-05T07:34:58.895Z,2.50
2022-09-05T07:37:39.889Z,2.78
2022-09-05T07:40:26.380Z,2.70
2022-09-05T07:43:09.484Z,2.62
2022-09-05T07:45:52.173Z,2.77
2022-09-05T07:48:35.124Z,2.50
2022-09-05T07:56:46.796Z,2.33
2022-09-05T07:57:07.803Z,2.17
2022-09-05T07:59:51.376Z,2.53
2022-09-05T08:02:19.024Z,2.53
2022-09-05T08:04:46.775Z,2.08
2022-09-05T08:07:48.874Z,2.30
2022-09-05T08:10:15.965Z,2.12
2022-09-05T08:13:23.066Z,2.40
2022-09-05T08:16:00.696Z,2.30
2022-09-05T08:18:21.423Z,2.33
2022-09-05T08:20:55.357Z,2.40
2022-09-05T08:23:44.445Z,2.20
2022-09-05T08:26:30.789Z,2.35
2022-09-05T08:29:34.241Z,2.22
2022-09-05T08:32:13.742Z,2.22
2022-09-05T08:34:49.199Z,2.42
2022-09-05T08:37:26.062Z,2.40
2022-09-05T08:40:07.283Z,2.37
2022-09-05T08:43:45.743Z,2.00
2022-09-05T08:46:41.201Z,2.20
2022-09-05T08:49:12.314Z,2.00
2022-09-05T08:51:53.956Z,1.90
2022-09-05T08:54:32.635Z,2.25
2022-09-05T08:57:08.232Z,2.00
2022-09-05T09:00:18.919Z,2.20
2022-09-05T09:03:04.234Z,2.45
2022-09-05T09:06:12.843Z,2.50
2022-09-05T09:09:05.979Z,2.40
2022-09-05T09:12:12.105Z,1.95
2022-09-05T09:14:54.745Z,2.28
2022-09-05T09:17:37.322Z,2.40
2022-09-05T09:20:33.549Z,2.10
2022-09-05T09:23:07.121Z,2.20
2022-09-05T09:26:17.030Z,1.92
2022-09-05T09:28:51.680Z,2.33
2022-09-05T09:31:40.909Z,2.05
2022-09-05T09:34:21.010Z,2.08
2022-09-05T09:37:16.423Z,2.10
2022-09-05T09:40:06.479Z,2.37
2022-09-05T09:42:56.112Z,2.20
2022-09-05T09:45:53.203Z,2.20
2022-09-05T09:48:48.265Z,2.60
2022-09-05T09:51:55.771Z,2.42
2022-09-05T09:54:57.239Z,2.42
2022-09-05T09:57:37.567Z,2.30
2022-09-05T10:00:11.334Z,2.25
2022-09-05T10:04:39.612Z,2.20
2022-09-05T10:10:40.320Z,2.25
2022-09-05T10:11:09.665Z,2.62
2022-09-05T10:15:30.325Z,2.37
2022-09-05T10:18:31.463Z,2.28
2022-09-05T10:21:16.366Z,2.17
2022-09-05T10:24:09.091Z,2.30
2022-09-05T10:27:15.529Z,2.28
2022-09-05T10:30:04.732Z,2.30
2022-09-05T10:35:10.680Z,2.50
2022-09-05T10:35:43.190Z,2.30
2022-09-05T10:38:14.575Z,2.25
2022-09-05T10:41:19.949Z,2.40
2022-09-05T10:43:46.410Z,2.28
2022-09-05T10:46:50.624Z,2.60
2022-09-05T10:49:26.279Z,2.45
2022-09-05T10:52:18.196Z,2.35
2022-09-05T10:55:15.198Z,2.30
2022-09-05T10:57:58.435Z,2.30
2022-09-05T11:02:21.303Z,2.33
2022-09-05T11:03:47.931Z,2.30
2022-09-05T11:06:20.945Z,2.03
2022-09-05T11:09:28.097Z,2.20
2022-09-05T11:12:24.816Z,2.17
2022-09-05T11:14:55.123Z,2.00
2022-09-05T11:17:39.889Z,2.22
2022-09-05T11:20:44.494Z,2.50
2022-09-05T11:23:19.806Z,2.30
2022-09-05T11:25:53.507Z,2.30
2022-09-05T11:28:37.636Z,2.03
2022-09-05T11:31:15.728Z,2.03
2022-09-05T11:39:46.309Z,2.17
2022-09-05T11:39:59.171Z,2.10
2022-09-05T11:40:31.184Z,2.40
2022-09-05T11:43:19.916Z,2.08
2022-09-05T11:46:24.553Z,2.20
2022-09-05T11:49:31.400Z,2.45
2022-09-05T11:52:36.633Z,2.10
2022-09-05T11:55:21.429Z,2.20
2022-09-05T11:57:58.966Z,2.00
2022-09-05T12:00:41.660Z,2.15
2022-09-05T12:04:14.336Z,2.10
2022-09-05T12:07:03.142Z,2.17
2022-09-05T12:10:46.547Z,2.40
2022-09-05T12:13:17.187Z,2.15
2022-09-05T12:16:07.577Z,2.53
2022-09-05T12:18:44.599Z,2.65
2022-09-05T12:21:37.642Z,2.20
2022-09-05T12:25:15.520Z,2.40
2022-09-05T12:27:41.953Z,2.67
2022-09-05T12:30:00.680Z,2.40
2022-09-05T12:33:58.208Z,2.20
2022-09-05T12:36:11.452Z,1.95
2022-09-05T12:40:57.093Z,2.25
2022-09-05T12:42:15.200Z,2.40
2022-09-05T12:44:46.395Z,2.25
2022-09-05T12:47:19.237Z,2.30
2022-09-05T12:50:14.874Z,2.53
2022-09-05T12:52:44.943Z,2.20
2022-09-05T12:55:20.211Z,2.20
2022-09-05T13:01:41.965Z,4.12
2022-09-05T13:03:07.759Z,2.30
2022-09-05T13:03:48.680Z,2.35
2022-09-05T13:06:39.418Z,2.33
2022-09-05T13:09:19.544Z,2.53
2022-09-05T13:14:47.780Z,2.28
2022-09-05T13:15:14.201Z,2.35
2022-09-05T13:17:48.785Z,2.17
2022-09-05T13:20:21.702Z,2.20
2022-09-05T13:22:52.085Z,2.40
2022-09-05T13:25:29.710Z,2.10
2022-09-05T13:28:05.051Z,2.17
2022-09-05T13:36:01.304Z,2.78
2022-09-05T13:38:10.675Z,2.15
2022-09-05T13:38:11.508Z,2.00
2022-09-05T13:39:28.154Z,2.83
2022-09-05T13:41:59.614Z,2.47
2022-09-05T13:44:29.735Z,2.30
2022-09-05T13:47:30.325Z,2.15
2022-09-05T13:50:34.269Z,2.20
2022-09-05T13:53:05.380Z,1.98
2022-09-05T13:55:42.244Z,2.30
2022-09-05T13:58:21.864Z,2.45
2022-09-05T14:01:27.065Z,2.58
2022-09-05T14:07:44.799Z,2.20
2022-09-05T14:10:49.275Z,2.10
2022-09-05T14:13:30.199Z,2.50
2022-09-05T14:16:05.898Z,2.58
2022-09-05T14:18:55.899Z,2.58
2022-09-05T14:21:26.949Z,2.70
2022-09-05T14:24:09.846Z,2.28
2022-09-05T14:26:58.997Z,2.70
2022-09-05T14:29:33.167Z,2.15
2022-09-05T14:37:34.751Z,2.25
2022-09-05T14:37:52.109Z,2.03
2022-09-05T14:38:11.610Z,2.60
2022-09-05T14:40:52.244Z,2.50
2022-09-05T14:43:38.510Z,2.50
2022-09-05T14:46:08.875Z,2.45
2022-09-05T14:49:07.245Z,2.50
2022-09-05T14:51:34.583Z,2.40
2022-09-05T14:54:13.179Z,2.45
2022-09-05T15:00:56.701Z,3.00
2022-09-05T15:02:42.573Z,4.30
2022-09-05T15:03:02.208Z,2.75
2022-09-05T15:05:45.956Z,2.15
2022-09-05T15:10:09.141Z,2.70
2022-09-05T15:12:19.891Z,2.30
2022-09-05T15:14:06.415Z,2.12
2022-09-05T15:16:38.655Z,2.20
2022-09-05T15:19:10.020Z,2.35
2022-09-05T15:21:41.315Z,2.30
2022-09-05T15:24:21.389Z,2.45
2022-09-05T15:26:53.910Z,2.22
2022-09-05T15:29:26.764Z,2.10
2022-09-05T15:32:22.485Z,2.03
2022-09-05T15:34:51.043Z,2.03
2022-09-05T15:37:37.975Z,2.72
2022-09-05T15:40:22.464Z,2.30
2022-09-05T15:42:58.165Z,2.33
2022-09-05T15:48:26.317Z,2.10
2022-09-05T15:51:07.879Z,2.05
2022-09-05T15:53:38.266Z,2.22
2022-09-05T15:56:11.593Z,2.10
2022-09-05T15:58:53.472Z,2.17
2022-09-05T16:01:58.230Z,2.33
2022-09-05T16:09:58.179Z,2.40
2022-09-05T16:10:46.154Z,2.17
2022-09-05T16:10:49.601Z,2.35
2022-09-05T16:13:17.858Z,4.15
2022-09-05T16:22:44.467Z,2.25
2022-09-05T16:23:24.442Z,2.20
2022-09-05T16:23:28.268Z,2.08
2022-09-05T16:24:58.123Z,2.10
2022-09-05T16:27:43.527Z,2.30
2022-09-05T16:30:19.065Z,2.20
2022-09-05T16:32:51.147Z,2.25
2022-09-05T16:35:26.260Z,2.30
2022-09-05T16:38:05.444Z,2.47
2022-09-05T16:40:39.270Z,2.12
2022-09-05T16:45:57.024Z,2.25
2022-09-05T16:48:40.013Z,1.90
2022-09-05T16:51:34.684Z,2.53
2022-09-05T16:54:21.961Z,2.15
2022-09-05T16:56:53.682Z,2.60
2022-09-05T16:59:32.468Z,2.28
2022-09-05T17:02:09.879Z,2.30
2022-09-05T17:05:03.396Z,2.35
2022-09-05T17:07:57.754Z,2.15
2022-09-05T17:10:34.375Z,2.28
2022-09-05T17:13:02.643Z,2.30
2022-09-05T17:15:39.303Z,2.03
2022-09-05T17:18:24.158Z,2.33
2022-09-05T17:20:59.344Z,2.80
2022-09-05T17:29:17.918Z,2.80
2022-09-05T17:29:30.723Z,2.37
2022-09-05T17:32:46.269Z,2.12
2022-09-05T17:35:26.153Z,2.78
2022-09-05T17:38:36.368Z,2.35
2022-09-05T17:41:43.190Z,2.58
2022-09-05T17:45:06.397Z,3.03
2022-09-05T17:47:57.632Z,2.80
2022-09-05T17:50:25.189Z,3.30
2022-09-05T17:53:25.375Z,2.83
2022-09-05T17:55:55.177Z,3.00
2022-09-05T17:58:47.528Z,2.92
2022-09-05T18:01:26.882Z,3.08
2022-09-05T18:04:06.813Z,2.75
2022-09-05T18:06:59.039Z,2.60
2022-09-05T18:09:37.376Z,2.42
2022-09-05T18:12:28.654Z,2.83
2022-09-05T18:15:27.730Z,2.70
2022-09-05T18:18:01.433Z,3.25
2022-09-05T18:20:41.402Z,3.00
2022-09-05T18:23:43.634Z,2.83
2022-09-05T18:26:21.829Z,2.90
2022-09-05T18:29:02.504Z,3.85
2022-09-05T18:31:41.803Z,3.47
2022-09-05T18:34:13.127Z,3.42
2022-09-05T18:36:45.851Z,3.37
2022-09-05T18:39:29.504Z,3.20
2022-09-05T18:42:16.130Z,3.40
2022-09-05T18:44:59.384Z,3.20
2022-09-05T18:47:59.330Z,3.78
2022-09-05T18:50:41.087Z,3.90
2022-09-05T18:53:25.097Z,3.55
2022-09-05T18:56:10.105Z,3.60
2022-09-05T18:58:52.039Z,3.70
2022-09-05T19:01:27.648Z,3.60
2022-09-05T19:04:00.568Z,3.75
2022-09-05T19:06:34.623Z,4.00
2022-09-05T19:09:09.051Z,3.60
2022-09-05T19:11:53.556Z,3.85
2022-09-05T19:14:34.100Z,3.15
2022-09-05T19:17:27.337Z,3.12
2022-09-05T19:20:30.593Z,3.15
2022-09-05T19:23:11.985Z,3.45
2022-09-05T19:25:45.501Z,3.35
2022-09-05T19:33:59.719Z,3.50
2022-09-05T19:36:49.843Z,3.67
2022-09-05T19:37:08.888Z,3.25
2022-09-05T19:47:28.639Z,3.33
2022-09-05T19:47:49.923Z,4.40
2022-09-05T19:47:50.727Z,4.20
2022-09-05T19:48:34.961Z,3.90
2022-09-05T19:51:17.523Z,4.07
2022-09-05T19:54:04.177Z,4.00
2022-09-05T19:56:43.470Z,4.37
2022-09-05T19:59:19.892Z,3.87
2022-09-05T20:01:48.432Z,4.12
2022-09-05T20:04:18.843Z,4.25
2022-09-05T20:06:47.841Z,3.87
2022-09-05T20:09:18.214Z,3.70
2022-09-05T20:11:49.739Z,3.83
2022-09-05T20:14:31.874Z,3.87
2022-09-05T20:17:17.803Z,3.97
2022-09-05T20:19:45.438Z,3.90
2022-09-05T20:22:49.731Z,3.70
2022-09-05T20:25:10.739Z,4.00
2022-09-05T20:27:58.742Z,4.12
2022-09-05T20:30:33.009Z,3.80
2022-09-05T20:33:06.136Z,4.18
2022-09-05T20:38:23.909Z,3.85
2022-09-05T20:43:19.848Z,3.87
2022-09-05T20:43:32.031Z,4.35
2022-09-05T20:44:22.802Z,3.75
2022-09-05T20:51:19.895Z,3.97
2022-09-05T20:54:17.178Z,3.95
2022-09-05T20:54:18.397Z,4.05
2022-09-05T20:55:41.399Z,3.65
2022-09-05T20:58:11.958Z,3.80
2022-09-05T21:01:21.747Z,4.03
2022-09-05T21:03:40.995Z,3.95
2022-09-05T21:06:22.595Z,3.97
2022-09-05T21:08:51.406Z,4.28
2022-09-05T21:11:28.903Z,3.85
2022-09-05T21:13:57.392Z,4.10
2022-09-05T21:16:30.471Z,4.20
2022-09-05T21:18:58.006Z,3.85
2022-09-05T21:21:30.046Z,3.95
2022-09-05T21:24:08.969Z,4.28
2022-09-05T21:26:45.052Z,4.25
2022-09-05T21:29:12.315Z,4.00
2022-09-05T21:31:46.398Z,4.10
2022-09-05T21:34:25.228Z,3.87
2022-09-05T21:37:06.361Z,4.22
2022-09-05T21:39:39.964Z,4.55
2022-09-05T21:43:21.646Z,4.00
2022-09-05T21:47:44.676Z,3.45
2022-09-05T21:47:52.195Z,4.03
2022-09-05T21:50:31.273Z,4.20
2022-09-05T21:54:11.556Z,3.53
2022-09-05T21:59:19.660Z,4.10
2022-09-05T21:59:26.995Z,3.90
2022-09-05T22:01:51.053Z,3.83
2022-09-05T22:04:15.301Z,3.90
2022-09-05T22:06:48.578Z,3.87
2022-09-05T22:09:17.801Z,3.62
2022-09-05T22:11:50.421Z,4.00
2022-09-05T22:14:23.624Z,4.18
2022-09-05T22:16:53.512Z,4.05
2022-09-05T22:19:24.394Z,4.28
2022-09-05T22:21:57.744Z,3.67
2022-09-05T22:24:28.018Z,3.75
2022-09-05T22:27:12.513Z,3.50
2022-09-05T22:29:40.844Z,3.55
2022-09-05T22:32:08.811Z,3.78
2022-09-05T22:34:36.306Z,3.60
2022-09-05T22:37:03.947Z,3.45
2022-09-05T22:39:37.854Z,3.30
2022-09-05T22:42:10.107Z,3.85
2022-09-05T22:44:39.651Z,3.03
2022-09-05T22:47:10.921Z,3.25
2022-09-05T22:49:38.317Z,3.58
2022-09-05T22:52:06.845Z,3.20
2022-09-05T22:54:35.321Z,3.70
2022-09-05T22:57:03.807Z,3.60
2022-09-05T22:59:31.350Z,3.30
2022-09-05T23:01:59.132Z,3.12
2022-09-05T23:04:26.628Z,2.90
2022-09-05T23:06:54.071Z,2.80
2022-09-05T23:09:21.921Z,2.92
2022-09-05T23:11:49.271Z,3.47
2022-09-05T23:14:16.742Z,3.33
2022-09-05T23:16:44.420Z,3.55
2022-09-05T23:19:11.841Z,3.47
2022-09-05T23:21:39.223Z,3.80
2022-09-05T23:24:06.883Z,3.30
2022-09-05T23:26:34.264Z,3.20
2022-09-05T23:29:01.649Z,3.10
2022-09-05T23:31:29.316Z,3.15
2022-09-05T23:33:58.226Z,3.00
2022-09-05T23:36:25.642Z,2.83
2022-09-05T23:38:53.281Z,2.90
2022-09-05T23:41:20.671Z,2.90
2022-09-05T23:43:48.064Z,2.60
2022-09-05T23:46:15.820Z,2.80
2022-09-05T23:48:43.295Z,2.60
2022-09-05T23:51:12.503Z,3.00
2022-09-05T23:53:40.227Z,2.70
2022-09-05T23:56:09.047Z,2.95
2022-09-05T23:58:36.711Z,2.85
